sensor_id;sensor_type;location;lat;lon;timestamp;P1;durP1;ratioP1;P2;durP2;ratioP2
45842;SDS011;31563;51.744;8.252;2022-11-09T00:01:14;2.53;;;1.23;;
45842;SDS011;31563;51.744;8.252;2022-11-09T00:03:43;2.20;;;1.08;;
45842;SDS011;31563;51.744;8.252;2022-11-09T00:06:12;2.17;;;1.35;;
45842;SDS011;31563;51.744;8.252;2022-11-09T00:11:09;1.85;;;1.08;;
45842;SDS011;31563;51.744;8.252;2022-11-09T00:13:38;1.20;;;0.87;;
45842;SDS011;31563;51.744;8.252;2022-11-09T00:16:08;2.22;;;1.33;;
45842;SDS011;31563;51.744;8.252;2022-11-09T00:18:37;1.83;;;1.23;;
45842;SDS011;31563;51.744;8.252;2022-11-09T00:21:06;1.30;;;0.93;;
45842;SDS011;31563;51.744;8.252;2022-11-09T00:23:36;1.33;;;0.90;;
45842;SDS011;31563;51.744;8.252;2022-11-09T00:26:05;1.38;;;0.75;;
45842;SDS011;31563;51.744;8.252;2022-11-09T00:28:34;1.30;;;0.88;;
45842;SDS011;31563;51.744;8.252;2022-11-09T00:31:03;2.08;;;1.10;;
45842;SDS011;31563;51.744;8.252;2022-11-09T00:33:33;1.85;;;1.00;;
45842;SDS011;31563;51.744;8.252;2022-11-09T00:36:02;1.40;;;0.98;;
45842;SDS011;31563;51.744;8.252;2022-11-09T00:38:32;2.83;;;1.10;;
45842;SDS011;31563;51.744;8.252;2022-11-09T00:41:03;1.33;;;0.95;;
45842;SDS011;31563;51.744;8.252;2022-11-09T00:43:32;1.50;;;1.20;;
45842;SDS011;31563;51.744;8.252;2022-11-09T00:46:00;1.75;;;1.13;;
45842;SDS011;31563;51.744;8.252;2022-11-09T00:48:28;1.45;;;0.90;;
45842;SDS011;31563;51.744;8.252;2022-11-09T00:50:57;1.60;;;0.80;;
45842;SDS011;31563;51.744;8.252;2022-11-09T00:53:25;1.50;;;0.75;;
45842;SDS011;31563;51.744;8.252;2022-11-09T00:55:55;1.08;;;0.63;;
45842;SDS011;31563;51.744;8.252;2022-11-09T00:58:25;2.03;;;1.00;;
45842;SDS011;31563;51.744;8.252;2022-11-09T01:00:55;1.55;;;0.93;;
45842;SDS011;31563;51.744;8.252;2022-11-09T01:03:24;1.17;;;0.68;;
45842;SDS011;31563;51.744;8.252;2022-11-09T01:05:53;1.17;;;0.70;;
45842;SDS011;31563;51.744;8.252;2022-11-09T01:08:25;2.65;;;0.88;;
45842;SDS011;31563;51.744;8.252;2022-11-09T01:10:53;1.50;;;0.98;;
45842;SDS011;31563;51.744;8.252;2022-11-09T01:13:21;1.17;;;0.80;;
45842;SDS011;31563;51.744;8.252;2022-11-09T01:15:51;2.45;;;1.05;;
45842;SDS011;31563;51.744;8.252;2022-11-09T01:18:20;1.08;;;0.65;;
45842;SDS011;31563;51.744;8.252;2022-11-09T01:20:48;1.38;;;0.93;;
45842;SDS011;31563;51.744;8.252;2022-11-09T01:23:17;1.25;;;0.90;;
45842;SDS011;31563;51.744;8.252;2022-11-09T01:25:46;1.17;;;0.60;;
45842;SDS011;31563;51.744;8.252;2022-11-09T01:28:15;1.10;;;0.80;;
45842;SDS011;31563;51.744;8.252;2022-11-09T01:30:43;1.48;;;0.82;;
45842;SDS011;31563;51.744;8.252;2022-11-09T01:33:13;2.25;;;0.85;;
45842;SDS011;31563;51.744;8.252;2022-11-09T01:35:41;0.98;;;0.63;;
45842;SDS011;31563;51.744;8.252;2022-11-09T01:38:09;1.40;;;0.70;;
45842;SDS011;31563;51.744;8.252;2022-11-09T01:40:38;2.03;;;0.70;;
45842;SDS011;31563;51.744;8.252;2022-11-09T01:43:13;1.20;;;0.82;;
45842;SDS011;31563;51.744;8.252;2022-11-09T01:45:43;2.25;;;0.80;;
45842;SDS011;31563;51.744;8.252;2022-11-09T01:48:16;1.27;;;0.85;;
45842;SDS011;31563;51.744;8.252;2022-11-09T01:50:49;1.67;;;0.90;;
45842;SDS011;31563;51.744;8.252;2022-11-09T01:53:21;1.73;;;0.60;;
45842;SDS011;31563;51.744;8.252;2022-11-09T01:55:58;0.90;;;0.65;;
45842;SDS011;31563;51.744;8.252;2022-11-09T01:58:31;1.80;;;0.70;;
45842;SDS011;31563;51.744;8.252;2022-11-09T02:01:04;1.10;;;0.70;;
45842;SDS011;31563;51.744;8.252;2022-11-09T02:03:38;1.73;;;1.00;;
45842;SDS011;31563;51.744;8.252;2022-11-09T02:06:09;1.20;;;0.80;;
45842;SDS011;31563;51.744;8.252;2022-11-09T02:08:40;1.15;;;0.65;;
45842;SDS011;31563;51.744;8.252;2022-11-09T02:11:11;1.52;;;0.60;;
45842;SDS011;31563;51.744;8.252;2022-11-09T02:13:41;1.55;;;0.93;;
45842;SDS011;31563;51.744;8.252;2022-11-09T02:16:12;2.28;;;1.00;;
45842;SDS011;31563;51.744;8.252;2022-11-09T02:18:44;1.10;;;0.80;;
45842;SDS011;31563;51.744;8.252;2022-11-09T02:21:18;1.17;;;0.60;;
45842;SDS011;31563;51.744;8.252;2022-11-09T02:23:46;1.42;;;0.80;;
45842;SDS011;31563;51.744;8.252;2022-11-09T02:26:15;1.52;;;0.63;;
45842;SDS011;31563;51.744;8.252;2022-11-09T02:28:50;1.33;;;0.70;;
45842;SDS011;31563;51.744;8.252;2022-11-09T02:31:21;1.05;;;0.60;;
45842;SDS011;31563;51.744;8.252;2022-11-09T02:33:53;3.15;;;0.77;;
45842;SDS011;31563;51.744;8.252;2022-11-09T02:36:27;1.02;;;0.70;;
45842;SDS011;31563;51.744;8.252;2022-11-09T02:38:55;1.23;;;0.82;;
45842;SDS011;31563;51.744;8.252;2022-11-09T02:41:24;1.77;;;1.00;;
45842;SDS011;31563;51.744;8.252;2022-11-09T02:43:53;1.85;;;0.82;;
45842;SDS011;31563;51.744;8.252;2022-11-09T02:46:23;1.45;;;0.70;;
45842;SDS011;31563;51.744;8.252;2022-11-09T02:48:52;0.80;;;0.55;;
45842;SDS011;31563;51.744;8.252;2022-11-09T02:51:20;1.30;;;0.70;;
45842;SDS011;31563;51.744;8.252;2022-11-09T02:53:49;1.00;;;0.65;;
45842;SDS011;31563;51.744;8.252;2022-11-09T02:56:18;1.02;;;0.50;;
45842;SDS011;31563;51.744;8.252;2022-11-09T02:58:46;1.10;;;0.75;;
45842;SDS011;31563;51.744;8.252;2022-11-09T03:01:14;0.85;;;0.63;;
45842;SDS011;31563;51.744;8.252;2022-11-09T03:03:42;0.70;;;0.60;;
45842;SDS011;31563;51.744;8.252;2022-11-09T03:06:10;1.13;;;0.80;;
45842;SDS011;31563;51.744;8.252;2022-11-09T03:08:38;1.20;;;0.70;;
45842;SDS011;31563;51.744;8.252;2022-11-09T03:11:08;1.30;;;0.82;;
45842;SDS011;31563;51.744;8.252;2022-11-09T03:13:36;1.60;;;0.70;;
45842;SDS011;31563;51.744;8.252;2022-11-09T03:16:04;2.20;;;0.90;;
45842;SDS011;31563;51.744;8.252;2022-11-09T03:18:33;1.65;;;0.77;;
45842;SDS011;31563;51.744;8.252;2022-11-09T03:21:02;1.30;;;0.70;;
45842;SDS011;31563;51.744;8.252;2022-11-09T03:23:30;2.13;;;0.70;;
45842;SDS011;31563;51.744;8.252;2022-11-09T03:25:59;0.93;;;0.60;;
45842;SDS011;31563;51.744;8.252;2022-11-09T03:28:28;3.67;;;0.90;;
45842;SDS011;31563;51.744;8.252;2022-11-09T03:30:56;1.38;;;0.60;;
45842;SDS011;31563;51.744;8.252;2022-11-09T03:33:24;1.95;;;0.70;;
45842;SDS011;31563;51.744;8.252;2022-11-09T03:35:52;0.90;;;0.60;;
45842;SDS011;31563;51.744;8.252;2022-11-09T03:38:20;1.33;;;0.75;;
45842;SDS011;31563;51.744;8.252;2022-11-09T03:40:49;1.20;;;0.80;;
45842;SDS011;31563;51.744;8.252;2022-11-09T03:43:17;0.88;;;0.70;;
45842;SDS011;31563;51.744;8.252;2022-11-09T03:45:46;1.13;;;0.70;;
45842;SDS011;31563;51.744;8.252;2022-11-09T03:48:15;1.50;;;0.70;;
45842;SDS011;31563;51.744;8.252;2022-11-09T03:50:43;3.55;;;0.88;;
45842;SDS011;31563;51.744;8.252;2022-11-09T03:53:11;1.83;;;0.88;;
45842;SDS011;31563;51.744;8.252;2022-11-09T03:55:39;1.85;;;0.60;;
45842;SDS011;31563;51.744;8.252;2022-11-09T03:58:08;2.47;;;0.88;;
45842;SDS011;31563;51.744;8.252;2022-11-09T04:00:37;2.72;;;0.80;;
45842;SDS011;31563;51.744;8.252;2022-11-09T04:03:07;1.33;;;0.80;;
45842;SDS011;31563;51.744;8.252;2022-11-09T04:05:35;1.77;;;0.80;;
45842;SDS011;31563;51.744;8.252;2022-11-09T04:08:03;2.47;;;0.88;;
45842;SDS011;31563;51.744;8.252;2022-11-09T04:10:31;1.60;;;0.80;;
45842;SDS011;31563;51.744;8.252;2022-11-09T04:13:00;1.73;;;0.68;;
45842;SDS011;31563;51.744;8.252;2022-11-09T04:15:28;1.30;;;0.60;;
45842;SDS011;31563;51.744;8.252;2022-11-09T04:17:57;2.28;;;0.90;;
45842;SDS011;31563;51.744;8.252;2022-11-09T04:20:28;1.15;;;0.55;;
45842;SDS011;31563;51.744;8.252;2022-11-09T04:22:57;0.90;;;0.55;;
45842;SDS011;31563;51.744;8.252;2022-11-09T04:25:27;1.42;;;0.90;;
45842;SDS011;31563;51.744;8.252;2022-11-09T04:27:59;1.17;;;0.80;;
45842;SDS011;31563;51.744;8.252;2022-11-09T04:30:28;2.17;;;0.55;;
45842;SDS011;31563;51.744;8.252;2022-11-09T04:32:58;1.58;;;0.90;;
45842;SDS011;31563;51.744;8.252;2022-11-09T04:35:28;1.03;;;0.50;;
45842;SDS011;31563;51.744;8.252;2022-11-09T04:37:58;0.90;;;0.50;;
45842;SDS011;31563;51.744;8.252;2022-11-09T04:40:27;1.38;;;0.50;;
45842;SDS011;31563;51.744;8.252;2022-11-09T04:42:57;1.20;;;0.60;;
45842;SDS011;31563;51.744;8.252;2022-11-09T04:47:56;2.20;;;1.08;;
45842;SDS011;31563;51.744;8.252;2022-11-09T04:50:25;1.42;;;0.70;;
45842;SDS011;31563;51.744;8.252;2022-11-09T04:52:55;0.60;;;0.40;;
45842;SDS011;31563;51.744;8.252;2022-11-09T04:55:33;1.20;;;0.50;;
45842;SDS011;31563;51.744;8.252;2022-11-09T04:58:01;1.80;;;0.75;;
45842;SDS011;31563;51.744;8.252;2022-11-09T05:00:30;2.50;;;0.70;;
45842;SDS011;31563;51.744;8.252;2022-11-09T05:02:59;1.88;;;0.68;;
45842;SDS011;31563;51.744;8.252;2022-11-09T05:05:27;1.60;;;0.80;;
45842;SDS011;31563;51.744;8.252;2022-11-09T05:07:57;1.73;;;0.60;;
45842;SDS011;31563;51.744;8.252;2022-11-09T05:10:25;1.63;;;0.68;;
45842;SDS011;31563;51.744;8.252;2022-11-09T05:12:57;1.50;;;0.63;;
45842;SDS011;31563;51.744;8.252;2022-11-09T05:15:25;1.17;;;0.52;;
45842;SDS011;31563;51.744;8.252;2022-11-09T05:17:54;1.23;;;0.60;;
45842;SDS011;31563;51.744;8.252;2022-11-09T05:20:23;2.38;;;0.70;;
45842;SDS011;31563;51.744;8.252;2022-11-09T05:22:51;1.35;;;0.60;;
45842;SDS011;31563;51.744;8.252;2022-11-09T05:25:38;1.05;;;0.60;;
45842;SDS011;31563;51.744;8.252;2022-11-09T05:28:06;1.58;;;0.73;;
45842;SDS011;31563;51.744;8.252;2022-11-09T05:30:35;1.75;;;0.85;;
45842;SDS011;31563;51.744;8.252;2022-11-09T05:33:03;1.90;;;0.60;;
45842;SDS011;31563;51.744;8.252;2022-11-09T05:35:32;2.03;;;0.70;;
45842;SDS011;31563;51.744;8.252;2022-11-09T05:38:00;1.63;;;0.68;;
45842;SDS011;31563;51.744;8.252;2022-11-09T05:40:29;1.05;;;0.77;;
45842;SDS011;31563;51.744;8.252;2022-11-09T05:42:58;0.95;;;0.55;;
45842;SDS011;31563;51.744;8.252;2022-11-09T05:45:26;2.30;;;0.75;;
45842;SDS011;31563;51.744;8.252;2022-11-09T05:48:08;0.60;;;0.40;;
45842;SDS011;31563;51.744;8.252;2022-11-09T05:50:37;1.08;;;0.50;;
45842;SDS011;31563;51.744;8.252;2022-11-09T05:53:06;0.70;;;0.50;;
45842;SDS011;31563;51.744;8.252;2022-11-09T05:55:35;3.38;;;0.60;;
45842;SDS011;31563;51.744;8.252;2022-11-09T05:58:05;1.60;;;0.60;;
45842;SDS011;31563;51.744;8.252;2022-11-09T06:00:33;1.55;;;0.80;;
45842;SDS011;31563;51.744;8.252;2022-11-09T06:03:02;2.90;;;0.63;;
45842;SDS011;31563;51.744;8.252;2022-11-09T06:05:31;2.38;;;0.80;;
45842;SDS011;31563;51.744;8.252;2022-11-09T06:08:02;2.65;;;0.70;;
45842;SDS011;31563;51.744;8.252;2022-11-09T06:10:30;1.67;;;0.70;;
45842;SDS011;31563;51.744;8.252;2022-11-09T06:12:59;3.30;;;0.73;;
45842;SDS011;31563;51.744;8.252;2022-11-09T06:15:29;2.63;;;0.95;;
45842;SDS011;31563;51.744;8.252;2022-11-09T06:20:26;4.57;;;1.05;;
45842;SDS011;31563;51.744;8.252;2022-11-09T06:22:55;3.43;;;0.70;;
45842;SDS011;31563;51.744;8.252;2022-11-09T06:25:29;7.55;;;1.30;;
45842;SDS011;31563;51.744;8.252;2022-11-09T06:27:58;4.30;;;0.95;;
45842;SDS011;31563;51.744;8.252;2022-11-09T06:30:27;5.05;;;1.25;;
45842;SDS011;31563;51.744;8.252;2022-11-09T06:33:00;2.85;;;0.90;;
45842;SDS011;31563;51.744;8.252;2022-11-09T06:35:28;5.35;;;0.88;;
45842;SDS011;31563;51.744;8.252;2022-11-09T06:37:57;3.33;;;1.00;;
45842;SDS011;31563;51.744;8.252;2022-11-09T06:40:26;3.33;;;0.80;;
45842;SDS011;31563;51.744;8.252;2022-11-09T06:42:55;3.63;;;1.38;;
45842;SDS011;31563;51.744;8.252;2022-11-09T06:45:25;6.97;;;1.10;;
45842;SDS011;31563;51.744;8.252;2022-11-09T06:47:54;5.47;;;1.30;;
45842;SDS011;31563;51.744;8.252;2022-11-09T06:50:24;4.55;;;1.30;;
45842;SDS011;31563;51.744;8.252;2022-11-09T06:52:54;4.90;;;1.08;;
45842;SDS011;31563;51.744;8.252;2022-11-09T06:55:23;9.30;;;1.13;;
45842;SDS011;31563;51.744;8.252;2022-11-09T06:57:52;2.60;;;1.02;;
45842;SDS011;31563;51.744;8.252;2022-11-09T07:00:20;4.22;;;0.82;;
45842;SDS011;31563;51.744;8.252;2022-11-09T07:02:49;4.30;;;1.10;;
45842;SDS011;31563;51.744;8.252;2022-11-09T07:05:17;1.75;;;0.65;;
45842;SDS011;31563;51.744;8.252;2022-11-09T07:07:46;3.15;;;0.80;;
45842;SDS011;31563;51.744;8.252;2022-11-09T07:10:15;3.80;;;0.80;;
45842;SDS011;31563;51.744;8.252;2022-11-09T07:12:43;3.22;;;1.10;;
45842;SDS011;31563;51.744;8.252;2022-11-09T07:15:12;2.28;;;0.80;;
45842;SDS011;31563;51.744;8.252;2022-11-09T07:17:40;3.78;;;1.08;;
45842;SDS011;31563;51.744;8.252;2022-11-09T07:20:09;2.50;;;0.65;;
45842;SDS011;31563;51.744;8.252;2022-11-09T07:22:40;3.60;;;0.82;;
45842;SDS011;31563;51.744;8.252;2022-11-09T07:25:10;4.03;;;0.88;;
45842;SDS011;31563;51.744;8.252;2022-11-09T07:27:39;2.25;;;0.77;;
45842;SDS011;31563;51.744;8.252;2022-11-09T07:30:07;4.95;;;0.93;;
45842;SDS011;31563;51.744;8.252;2022-11-09T07:32:37;2.33;;;0.70;;
45842;SDS011;31563;51.744;8.252;2022-11-09T07:35:26;1.33;;;0.60;;
45842;SDS011;31563;51.744;8.252;2022-11-09T07:37:58;2.00;;;0.63;;
45842;SDS011;31563;51.744;8.252;2022-11-09T07:40:29;2.22;;;0.65;;
45842;SDS011;31563;51.744;8.252;2022-11-09T07:45:26;2.70;;;0.68;;
45842;SDS011;31563;51.744;8.252;2022-11-09T07:47:55;3.10;;;0.70;;
45842;SDS011;31563;51.744;8.252;2022-11-09T07:50:23;3.50;;;1.00;;
45842;SDS011;31563;51.744;8.252;2022-11-09T07:52:53;3.35;;;0.82;;
45842;SDS011;31563;51.744;8.252;2022-11-09T07:55:21;1.60;;;0.60;;
45842;SDS011;31563;51.744;8.252;2022-11-09T07:57:54;3.30;;;0.85;;
45842;SDS011;31563;51.744;8.252;2022-11-09T08:00:23;3.42;;;0.80;;
45842;SDS011;31563;51.744;8.252;2022-11-09T08:02:53;3.78;;;0.63;;
45842;SDS011;31563;51.744;8.252;2022-11-09T08:05:21;1.50;;;0.50;;
45842;SDS011;31563;51.744;8.252;2022-11-09T08:07:53;2.28;;;0.52;;
45842;SDS011;31563;51.744;8.252;2022-11-09T08:10:22;2.03;;;0.52;;
45842;SDS011;31563;51.744;8.252;2022-11-09T08:12:55;2.65;;;0.60;;
45842;SDS011;31563;51.744;8.252;2022-11-09T08:15:24;2.63;;;0.88;;
45842;SDS011;31563;51.744;8.252;2022-11-09T08:17:53;2.25;;;0.80;;
45842;SDS011;31563;51.744;8.252;2022-11-09T08:20:21;2.25;;;0.57;;
45842;SDS011;31563;51.744;8.252;2022-11-09T08:22:50;3.30;;;0.60;;
45842;SDS011;31563;51.744;8.252;2022-11-09T08:25:18;1.88;;;0.60;;
45842;SDS011;31563;51.744;8.252;2022-11-09T08:27:46;2.00;;;0.55;;
45842;SDS011;31563;51.744;8.252;2022-11-09T08:30:17;2.47;;;0.60;;
45842;SDS011;31563;51.744;8.252;2022-11-09T08:32:46;2.03;;;0.70;;
45842;SDS011;31563;51.744;8.252;2022-11-09T08:35:15;3.13;;;0.63;;
45842;SDS011;31563;51.744;8.252;2022-11-09T08:37:46;2.13;;;0.40;;
45842;SDS011;31563;51.744;8.252;2022-11-09T08:40:16;2.55;;;0.50;;
45842;SDS011;31563;51.744;8.252;2022-11-09T08:43:16;1.30;;;0.55;;
45842;SDS011;31563;51.744;8.252;2022-11-09T08:45:46;2.80;;;0.57;;
45842;SDS011;31563;51.744;8.252;2022-11-09T08:48:15;1.17;;;0.60;;
45842;SDS011;31563;51.744;8.252;2022-11-09T08:50:44;1.10;;;0.45;;
45842;SDS011;31563;51.744;8.252;2022-11-09T08:53:12;1.50;;;0.40;;
45842;SDS011;31563;51.744;8.252;2022-11-09T08:55:40;1.85;;;0.75;;
45842;SDS011;31563;51.744;8.252;2022-11-09T08:58:15;2.65;;;0.30;;
45842;SDS011;31563;51.744;8.252;2022-11-09T09:00:43;2.55;;;0.55;;
45842;SDS011;31563;51.744;8.252;2022-11-09T09:03:13;2.22;;;0.55;;
45842;SDS011;31563;51.744;8.252;2022-11-09T09:05:42;2.58;;;0.50;;
45842;SDS011;31563;51.744;8.252;2022-11-09T09:08:10;1.20;;;0.40;;
45842;SDS011;31563;51.744;8.252;2022-11-09T09:10:40;1.73;;;0.60;;
45842;SDS011;31563;51.744;8.252;2022-11-09T09:13:09;1.52;;;0.40;;
45842;SDS011;31563;51.744;8.252;2022-11-09T09:15:37;1.75;;;0.35;;
45842;SDS011;31563;51.744;8.252;2022-11-09T09:18:06;1.67;;;0.35;;
45842;SDS011;31563;51.744;8.252;2022-11-09T09:20:35;2.85;;;0.52;;
45842;SDS011;31563;51.744;8.252;2022-11-09T09:23:03;1.73;;;0.38;;
45842;SDS011;31563;51.744;8.252;2022-11-09T09:25:32;2.20;;;0.60;;
45842;SDS011;31563;51.744;8.252;2022-11-09T09:28:00;2.75;;;0.50;;
45842;SDS011;31563;51.744;8.252;2022-11-09T09:30:28;1.90;;;0.52;;
45842;SDS011;31563;51.744;8.252;2022-11-09T09:32:57;1.75;;;0.50;;
45842;SDS011;31563;51.744;8.252;2022-11-09T09:35:26;1.45;;;0.40;;
45842;SDS011;31563;51.744;8.252;2022-11-09T09:37:56;1.50;;;0.40;;
45842;SDS011;31563;51.744;8.252;2022-11-09T09:40:25;1.17;;;0.40;;
45842;SDS011;31563;51.744;8.252;2022-11-09T09:43:00;2.38;;;0.38;;
45842;SDS011;31563;51.744;8.252;2022-11-09T09:45:29;1.80;;;0.40;;
45842;SDS011;31563;51.744;8.252;2022-11-09T09:48:02;3.15;;;0.80;;
45842;SDS011;31563;51.744;8.252;2022-11-09T09:50:43;2.65;;;0.40;;
45842;SDS011;31563;51.744;8.252;2022-11-09T09:53:17;2.15;;;0.40;;
45842;SDS011;31563;51.744;8.252;2022-11-09T09:55:54;1.10;;;0.50;;
45842;SDS011;31563;51.744;8.252;2022-11-09T09:58:27;0.80;;;0.40;;
45842;SDS011;31563;51.744;8.252;2022-11-09T10:00:57;2.13;;;0.30;;
45842;SDS011;31563;51.744;8.252;2022-11-09T10:03:31;1.92;;;0.43;;
45842;SDS011;31563;51.744;8.252;2022-11-09T10:06:01;1.33;;;0.40;;
45842;SDS011;31563;51.744;8.252;2022-11-09T10:08:39;1.63;;;0.40;;
45842;SDS011;31563;51.744;8.252;2022-11-09T10:11:17;0.30;;;0.20;;
45842;SDS011;31563;51.744;8.252;2022-11-09T10:13:56;1.35;;;0.50;;
45842;SDS011;31563;51.744;8.252;2022-11-09T10:16:34;1.25;;;0.40;;
45842;SDS011;31563;51.744;8.252;2022-11-09T10:19:16;1.00;;;0.40;;
45842;SDS011;31563;51.744;8.252;2022-11-09T10:21:52;1.60;;;0.30;;
45842;SDS011;31563;51.744;8.252;2022-11-09T10:24:31;1.55;;;0.40;;
45842;SDS011;31563;51.744;8.252;2022-11-09T10:27:25;1.25;;;0.20;;
45842;SDS011;31563;51.744;8.252;2022-11-09T10:29:56;1.38;;;0.30;;
45842;SDS011;31563;51.744;8.252;2022-11-09T10:32:30;1.38;;;0.38;;
45842;SDS011;31563;51.744;8.252;2022-11-09T10:35:00;1.07;;;0.30;;
45842;SDS011;31563;51.744;8.252;2022-11-09T10:37:35;1.50;;;0.50;;
45842;SDS011;31563;51.744;8.252;2022-11-09T10:40:12;1.05;;;0.30;;
45842;SDS011;31563;51.744;8.252;2022-11-09T10:42:44;0.60;;;0.30;;
45842;SDS011;31563;51.744;8.252;2022-11-09T10:45:17;1.45;;;0.30;;
45842;SDS011;31563;51.744;8.252;2022-11-09T10:47:58;4.50;;;0.60;;
45842;SDS011;31563;51.744;8.252;2022-11-09T10:50:29;5.07;;;0.88;;
45842;SDS011;31563;51.744;8.252;2022-11-09T10:53:17;3.78;;;0.50;;
45842;SDS011;31563;51.744;8.252;2022-11-09T10:58:23;2.38;;;0.50;;
45842;SDS011;31563;51.744;8.252;2022-11-09T11:00:58;3.88;;;0.55;;
45842;SDS011;31563;51.744;8.252;2022-11-09T11:03:28;1.65;;;0.60;;
45842;SDS011;31563;51.744;8.252;2022-11-09T11:05:58;6.72;;;0.98;;
45842;SDS011;31563;51.744;8.252;2022-11-09T11:08:29;2.50;;;0.70;;
45842;SDS011;31563;51.744;8.252;2022-11-09T11:14:08;4.68;;;0.88;;
45842;SDS011;31563;51.744;8.252;2022-11-09T11:16:45;3.05;;;0.40;;
45842;SDS011;31563;51.744;8.252;2022-11-09T11:19:30;2.90;;;0.40;;
45842;SDS011;31563;51.744;8.252;2022-11-09T11:24:53;3.35;;;0.75;;
45842;SDS011;31563;51.744;8.252;2022-11-09T11:27:26;2.28;;;0.30;;
45842;SDS011;31563;51.744;8.252;2022-11-09T11:30:02;2.80;;;0.38;;
45842;SDS011;31563;51.744;8.252;2022-11-09T11:32:35;3.42;;;0.77;;
45842;SDS011;31563;51.744;8.252;2022-11-09T11:35:04;5.22;;;1.00;;
45842;SDS011;31563;51.744;8.252;2022-11-09T11:37:42;2.25;;;0.52;;
45842;SDS011;31563;51.744;8.252;2022-11-09T11:40:18;3.92;;;0.68;;
45842;SDS011;31563;51.744;8.252;2022-11-09T11:42:57;3.95;;;0.85;;
45842;SDS011;31563;51.744;8.252;2022-11-09T11:45:44;3.78;;;0.63;;
45842;SDS011;31563;51.744;8.252;2022-11-09T11:48:27;3.08;;;1.08;;
45842;SDS011;31563;51.744;8.252;2022-11-09T11:51:09;2.53;;;0.88;;
45842;SDS011;31563;51.744;8.252;2022-11-09T11:53:46;3.75;;;0.50;;
45842;SDS011;31563;51.744;8.252;2022-11-09T11:56:30;2.80;;;0.60;;
45842;SDS011;31563;51.744;8.252;2022-11-09T11:59:08;3.67;;;0.43;;
45842;SDS011;31563;51.744;8.252;2022-11-09T12:01:56;2.72;;;0.65;;
45842;SDS011;31563;51.744;8.252;2022-11-09T12:04:47;3.20;;;0.75;;
45842;SDS011;31563;51.744;8.252;2022-11-09T12:07:40;3.53;;;0.60;;
45842;SDS011;31563;51.744;8.252;2022-11-09T12:10:15;2.58;;;0.60;;
45842;SDS011;31563;51.744;8.252;2022-11-09T12:12:56;2.97;;;0.65;;
45842;SDS011;31563;51.744;8.252;2022-11-09T12:15:33;2.30;;;0.82;;
45842;SDS011;31563;51.744;8.252;2022-11-09T12:18:18;2.97;;;0.50;;
45842;SDS011;31563;51.744;8.252;2022-11-09T12:20:57;4.47;;;0.93;;
45842;SDS011;31563;51.744;8.252;2022-11-09T12:23:39;9.00;;;0.90;;
45842;SDS011;31563;51.744;8.252;2022-11-09T12:26:19;2.65;;;0.50;;
45842;SDS011;31563;51.744;8.252;2022-11-09T12:29:00;4.87;;;0.83;;
45842;SDS011;31563;51.744;8.252;2022-11-09T12:31:41;3.97;;;0.63;;
45842;SDS011;31563;51.744;8.252;2022-11-09T12:34:17;3.00;;;0.80;;
45842;SDS011;31563;51.744;8.252;2022-11-09T12:36:50;2.95;;;0.60;;
45842;SDS011;31563;51.744;8.252;2022-11-09T12:39:23;2.05;;;0.77;;
45842;SDS011;31563;51.744;8.252;2022-11-09T12:41:57;4.38;;;0.52;;
45842;SDS011;31563;51.744;8.252;2022-11-09T12:44:31;5.07;;;0.70;;
45842;SDS011;31563;51.744;8.252;2022-11-09T12:47:05;4.80;;;1.00;;
45842;SDS011;31563;51.744;8.252;2022-11-09T12:49:41;4.63;;;0.70;;
45842;SDS011;31563;51.744;8.252;2022-11-09T12:52:12;3.75;;;0.50;;
45842;SDS011;31563;51.744;8.252;2022-11-09T12:54:42;2.90;;;0.68;;
45842;SDS011;31563;51.744;8.252;2022-11-09T12:57:13;3.53;;;0.40;;
45842;SDS011;31563;51.744;8.252;2022-11-09T12:59:48;2.85;;;0.40;;
45842;SDS011;31563;51.744;8.252;2022-11-09T13:02:26;1.73;;;0.50;;
45842;SDS011;31563;51.744;8.252;2022-11-09T13:04:57;4.32;;;0.60;;
45842;SDS011;31563;51.744;8.252;2022-11-09T13:10:25;2.47;;;0.40;;
45842;SDS011;31563;51.744;8.252;2022-11-09T13:13:03;1.75;;;0.40;;
45842;SDS011;31563;51.744;8.252;2022-11-09T13:16:04;2.13;;;0.50;;
45842;SDS011;31563;51.744;8.252;2022-11-09T13:18:47;2.22;;;0.55;;
45842;SDS011;31563;51.744;8.252;2022-11-09T13:21:30;1.65;;;0.45;;
45842;SDS011;31563;51.744;8.252;2022-11-09T13:27:33;2.53;;;0.60;;
45842;SDS011;31563;51.744;8.252;2022-11-09T13:33:22;1.17;;;0.30;;
45842;SDS011;31563;51.744;8.252;2022-11-09T13:38:41;1.27;;;0.20;;
45842;SDS011;31563;51.744;8.252;2022-11-09T13:44:20;2.63;;;0.50;;
45842;SDS011;31563;51.744;8.252;2022-11-09T13:46:51;2.60;;;0.43;;
45842;SDS011;31563;51.744;8.252;2022-11-09T13:49:40;2.08;;;0.40;;
45842;SDS011;31563;51.744;8.252;2022-11-09T13:55:23;4.57;;;0.60;;
45842;SDS011;31563;51.744;8.252;2022-11-09T13:58:03;2.40;;;0.32;;
45842;SDS011;31563;51.744;8.252;2022-11-09T14:00:49;2.47;;;0.65;;
45842;SDS011;31563;51.744;8.252;2022-11-09T14:03:19;2.15;;;0.45;;
45842;SDS011;31563;51.744;8.252;2022-11-09T14:05:50;1.08;;;0.38;;
45842;SDS011;31563;51.744;8.252;2022-11-09T14:08:22;2.33;;;0.60;;
45842;SDS011;31563;51.744;8.252;2022-11-09T14:11:13;2.25;;;0.57;;
45842;SDS011;31563;51.744;8.252;2022-11-09T14:17:01;3.70;;;0.55;;
45842;SDS011;31563;51.744;8.252;2022-11-09T14:19:39;2.95;;;0.30;;
45842;SDS011;31563;51.744;8.252;2022-11-09T14:22:26;2.47;;;0.30;;
45842;SDS011;31563;51.744;8.252;2022-11-09T14:25:02;2.63;;;0.65;;
45842;SDS011;31563;51.744;8.252;2022-11-09T14:27:33;2.38;;;0.40;;
45842;SDS011;31563;51.744;8.252;2022-11-09T14:30:01;2.80;;;0.40;;
45842;SDS011;31563;51.744;8.252;2022-11-09T14:32:45;3.53;;;0.60;;
45842;SDS011;31563;51.744;8.252;2022-11-09T14:35:19;6.13;;;1.10;;
45842;SDS011;31563;51.744;8.252;2022-11-09T14:37:50;6.97;;;1.00;;
45842;SDS011;31563;51.744;8.252;2022-11-09T14:40:20;5.00;;;0.93;;
45842;SDS011;31563;51.744;8.252;2022-11-09T14:42:53;4.50;;;0.90;;
45842;SDS011;31563;51.744;8.252;2022-11-09T14:45:22;5.50;;;1.05;;
45842;SDS011;31563;51.744;8.252;2022-11-09T14:47:51;6.57;;;1.20;;
45842;SDS011;31563;51.744;8.252;2022-11-09T14:50:23;5.78;;;1.13;;
45842;SDS011;31563;51.744;8.252;2022-11-09T14:52:52;7.53;;;1.40;;
45842;SDS011;31563;51.744;8.252;2022-11-09T14:55:22;9.98;;;1.55;;
45842;SDS011;31563;51.744;8.252;2022-11-09T14:57:53;8.57;;;1.90;;
45842;SDS011;31563;51.744;8.252;2022-11-09T15:00:26;5.68;;;1.20;;
45842;SDS011;31563;51.744;8.252;2022-11-09T15:02:58;4.25;;;0.70;;
45842;SDS011;31563;51.744;8.252;2022-11-09T15:05:47;4.47;;;1.10;;
45842;SDS011;31563;51.744;8.252;2022-11-09T15:08:17;3.28;;;1.00;;
45842;SDS011;31563;51.744;8.252;2022-11-09T15:10:49;10.38;;;1.20;;
45842;SDS011;31563;51.744;8.252;2022-11-09T15:13:26;5.47;;;1.30;;
45842;SDS011;31563;51.744;8.252;2022-11-09T15:15:56;5.90;;;1.10;;
45842;SDS011;31563;51.744;8.252;2022-11-09T15:18:25;5.10;;;1.17;;
45842;SDS011;31563;51.744;8.252;2022-11-09T15:21:09;8.73;;;1.17;;
45842;SDS011;31563;51.744;8.252;2022-11-09T15:23:42;3.10;;;0.90;;
45842;SDS011;31563;51.744;8.252;2022-11-09T15:26:32;6.35;;;1.00;;
45842;SDS011;31563;51.744;8.252;2022-11-09T15:32:05;11.60;;;1.17;;
45842;SDS011;31563;51.744;8.252;2022-11-09T15:34:40;11.15;;;1.73;;
45842;SDS011;31563;51.744;8.252;2022-11-09T15:37:23;5.68;;;0.80;;
45842;SDS011;31563;51.744;8.252;2022-11-09T15:39:53;6.10;;;0.82;;
45842;SDS011;31563;51.744;8.252;2022-11-09T15:42:22;8.02;;;1.10;;
45842;SDS011;31563;51.744;8.252;2022-11-09T15:44:53;5.25;;;1.15;;
45842;SDS011;31563;51.744;8.252;2022-11-09T15:47:23;8.65;;;0.90;;
45842;SDS011;31563;51.744;8.252;2022-11-09T15:49:57;7.13;;;1.10;;
45842;SDS011;31563;51.744;8.252;2022-11-09T15:52:26;7.30;;;0.70;;
45842;SDS011;31563;51.744;8.252;2022-11-09T15:54:55;6.85;;;1.00;;
45842;SDS011;31563;51.744;8.252;2022-11-09T15:57:23;6.60;;;0.88;;
45842;SDS011;31563;51.744;8.252;2022-11-09T15:59:53;6.38;;;1.08;;